Pagrindinis puslapis
METAR-TAF:

METAR-TAF

Oro uostai :

Ipjalesas, Kolumbija

platuma: 00-49N, ilguma: 077-38W, Aukštis: 2961 m

Dabartinis oras

Ataskaita buvo paskelbta 4 valandos ir 39 minutes, ne 23:00 UTC
Vėjas 7 kt iš Rytų
Temperatūra 11°C
Drėgmė 87%
Slėgis 1028 hPa
Matomumas 10 km arba daugiau
Išsisklaidę debesys ne aukštis 1600 ft
Liūtis kaimynystėje

METAR: SKIP 172300Z 09007KT 9999 VCSH SCT016 11/09 A3036 RMK VCSH/SE

Laikas: 22:39 (03:39 UTC)


TAF: trūkstamas

Orai ataskaitas ir orų prognozės (METAR, TAF).

turimą stotys yra geltonos ir raudonos taškus žemėlapyje.

Perkelti pele per norėdami pamatyti stoties vardą.

Tada spustelėkite, norėdami matyti oro stebėjimo ir prognozės.

Norėdami pakeisti žemėlapį: spustelėkite ant žalios mygtukų su juodo kryžiaus žemyn,; žalią mygtuką su brūkšneliu, jei norite nutolinti; arba žalių rodyklių gretimoms žemėlapius.


METAR-TAF: